Hauptseite
METAR-TAF:

METAR-TAF

Flughäfen :

Bozen, Italien

Breite: 46-28N, Länge: 011-20E, Höhe: 262 m

Beobachtung

Neuester Wetterbericht von vor 4 Stunden und 35 Minuten, um 21:50 UTC
Wind 2 kt aus unterschiedlichen Richtungen
Temperatur 0°C
Luftfeuchtigkeit 93%
Luftdruck 1025 hPa
Sichtweite 10 km oder mehr
keine Wolken unter 1500 m und keine Kumulonimbus oder Gewitterwolken

METAR: LIPB 172150Z VRB02KT CAVOK 00/M01 Q1025

Zeit: 03:25 (02:25 UTC)

Prognose

Neuester Wetterbericht von vor 9 Stunden und 25 Minuten, um 17:00 UTC
Gültige Prognose vom 17 um 18 UTC bis 18 um 18 UTC
Wind 5 kt aus unterschiedlichen Richtungen
Sichtweite 10 km oder mehr
Leicht bewölkt in der Höhe von 6000 ft

TAF: LIPB 171700Z 1718/1818 VRB05KT 9999 FEW060

Wetterbeobachtungen und Prognosen von mehr als 4000 Flughäfen (METAR und TAF Bericht).

Die verfügbaren Stationen werden durch gelbe und rote Markierungen auf der Karte dargestellt.

Führen Sie die Maus auf sie, um den Namen der Station zu sehen.

Darauf klicken, um die Beobachtung von Wetterbeobachtungen und Prognosen zu sehen.

Um die Karte zu ändern : klicken Sie auf den grünen Tasten mit einem schwarzen Kreuz Zum Vergrößern, auf den grünen Button mit einem Gedankenstrich zu verkleinern, oder auf die grünen Pfeile für benachbarte Karten.


METAR-TAF: